sensor_id;sensor_type;location;lat;lon;timestamp;P1;durP1;ratioP1;P2;durP2;ratioP2
37777;SDS011;23615;51.506;7.678;2023-06-26T00:00:22;2.80;;;2.60;;
37777;SDS011;23615;51.506;7.678;2023-06-26T00:02:48;2.80;;;2.60;;
37777;SDS011;23615;51.506;7.678;2023-06-26T00:05:13;3.27;;;2.93;;
37777;SDS011;23615;51.506;7.678;2023-06-26T00:07:38;2.88;;;2.67;;
37777;SDS011;23615;51.506;7.678;2023-06-26T00:10:04;3.50;;;3.20;;
37777;SDS011;23615;51.506;7.678;2023-06-26T00:12:30;3.50;;;3.20;;
37777;SDS011;23615;51.506;7.678;2023-06-26T00:14:56;3.58;;;2.78;;
37777;SDS011;23615;51.506;7.678;2023-06-26T00:17:21;3.33;;;3.03;;
37777;SDS011;23615;51.506;7.678;2023-06-26T00:19:47;2.95;;;2.75;;
37777;SDS011;23615;51.506;7.678;2023-06-26T00:22:22;3.33;;;3.00;;
37777;SDS011;23615;51.506;7.678;2023-06-26T00:24:47;3.10;;;2.90;;
37777;SDS011;23615;51.506;7.678;2023-06-26T00:27:13;3.33;;;3.03;;
37777;SDS011;23615;51.506;7.678;2023-06-26T00:29:38;3.00;;;2.70;;
37777;SDS011;23615;51.506;7.678;2023-06-26T00:32:04;3.37;;;3.10;;
37777;SDS011;23615;51.506;7.678;2023-06-26T00:34:29;3.03;;;2.83;;
37777;SDS011;23615;51.506;7.678;2023-06-26T00:36:55;3.17;;;2.87;;
37777;SDS011;23615;51.506;7.678;2023-06-26T00:39:20;2.93;;;2.73;;
37777;SDS011;23615;51.506;7.678;2023-06-26T00:41:45;2.88;;;2.67;;
37777;SDS011;23615;51.506;7.678;2023-06-26T00:44:11;3.47;;;3.17;;
37777;SDS011;23615;51.506;7.678;2023-06-26T00:46:36;3.13;;;2.83;;
37777;SDS011;23615;51.506;7.678;2023-06-26T00:49:02;3.47;;;2.87;;
37777;SDS011;23615;51.506;7.678;2023-06-26T00:51:28;3.50;;;3.20;;
37777;SDS011;23615;51.506;7.678;2023-06-26T00:53:55;3.10;;;2.90;;
37777;SDS011;23615;51.506;7.678;2023-06-26T00:56:21;3.10;;;2.80;;
37777;SDS011;23615;51.506;7.678;2023-06-26T00:58:46;3.58;;;3.28;;
37777;SDS011;23615;51.506;7.678;2023-06-26T01:01:12;3.60;;;3.10;;
37777;SDS011;23615;51.506;7.678;2023-06-26T01:03:45;4.40;;;3.20;;
37777;SDS011;23615;51.506;7.678;2023-06-26T01:06:16;3.00;;;2.80;;
37777;SDS011;23615;51.506;7.678;2023-06-26T01:08:43;3.15;;;2.85;;
37777;SDS011;23615;51.506;7.678;2023-06-26T01:11:09;3.55;;;3.25;;
37777;SDS011;23615;51.506;7.678;2023-06-26T01:13:34;3.47;;;3.17;;
37777;SDS011;23615;51.506;7.678;2023-06-26T01:16:00;3.70;;;3.38;;
37777;SDS011;23615;51.506;7.678;2023-06-26T01:18:27;2.75;;;2.55;;
37777;SDS011;23615;51.506;7.678;2023-06-26T01:20:54;3.05;;;2.83;;
37777;SDS011;23615;51.506;7.678;2023-06-26T01:23:42;2.80;;;2.60;;
37777;SDS011;23615;51.506;7.678;2023-06-26T01:26:34;3.00;;;2.80;;
37777;SDS011;23615;51.506;7.678;2023-06-26T01:29:01;3.33;;;3.03;;
37777;SDS011;23615;51.506;7.678;2023-06-26T01:31:29;3.53;;;3.00;;
37777;SDS011;23615;51.506;7.678;2023-06-26T01:33:55;3.40;;;3.10;;
37777;SDS011;23615;51.506;7.678;2023-06-26T01:36:23;3.45;;;3.00;;
37777;SDS011;23615;51.506;7.678;2023-06-26T01:38:49;3.05;;;2.75;;
37777;SDS011;23615;51.506;7.678;2023-06-26T01:41:15;3.20;;;2.90;;
37777;SDS011;23615;51.506;7.678;2023-06-26T01:46:52;3.17;;;2.88;;
37777;SDS011;23615;51.506;7.678;2023-06-26T01:52:05;3.53;;;2.92;;
37777;SDS011;23615;51.506;7.678;2023-06-26T01:57:45;3.65;;;3.35;;
37777;SDS011;23615;51.506;7.678;2023-06-26T02:00:13;3.58;;;3.28;;
37777;SDS011;23615;51.506;7.678;2023-06-26T02:02:42;3.20;;;2.90;;
37777;SDS011;23615;51.506;7.678;2023-06-26T02:05:09;3.17;;;2.90;;
37777;SDS011;23615;51.506;7.678;2023-06-26T02:07:34;3.27;;;2.97;;
37777;SDS011;23615;51.506;7.678;2023-06-26T02:09:59;3.00;;;2.80;;
37777;SDS011;23615;51.506;7.678;2023-06-26T02:12:25;3.33;;;3.03;;
37777;SDS011;23615;51.506;7.678;2023-06-26T02:14:50;3.50;;;3.20;;
37777;SDS011;23615;51.506;7.678;2023-06-26T02:17:16;3.17;;;2.87;;
37777;SDS011;23615;51.506;7.678;2023-06-26T02:19:41;3.03;;;2.77;;
37777;SDS011;23615;51.506;7.678;2023-06-26T02:22:12;3.78;;;3.40;;
37777;SDS011;23615;51.506;7.678;2023-06-26T02:24:41;2.88;;;2.67;;
37777;SDS011;23615;51.506;7.678;2023-06-26T02:27:07;3.58;;;3.17;;
37777;SDS011;23615;51.506;7.678;2023-06-26T02:29:33;3.03;;;2.77;;
37777;SDS011;23615;51.506;7.678;2023-06-26T02:31:58;3.90;;;3.23;;
37777;SDS011;23615;51.506;7.678;2023-06-26T02:34:23;3.63;;;3.33;;
37777;SDS011;23615;51.506;7.678;2023-06-26T02:36:48;3.90;;;3.50;;
37777;SDS011;23615;51.506;7.678;2023-06-26T02:39:14;3.47;;;3.17;;
37777;SDS011;23615;51.506;7.678;2023-06-26T02:41:39;3.53;;;3.22;;
37777;SDS011;23615;51.506;7.678;2023-06-26T02:44:05;3.13;;;2.83;;
37777;SDS011;23615;51.506;7.678;2023-06-26T02:46:31;3.50;;;3.20;;
37777;SDS011;23615;51.506;7.678;2023-06-26T02:48:56;3.45;;;3.05;;
37777;SDS011;23615;51.506;7.678;2023-06-26T02:51:21;3.37;;;3.07;;
37777;SDS011;23615;51.506;7.678;2023-06-26T02:53:47;2.97;;;2.67;;
37777;SDS011;23615;51.506;7.678;2023-06-26T02:56:12;3.30;;;3.00;;
37777;SDS011;23615;51.506;7.678;2023-06-26T02:58:37;2.93;;;2.73;;
37777;SDS011;23615;51.506;7.678;2023-06-26T03:01:02;3.23;;;2.93;;
37777;SDS011;23615;51.506;7.678;2023-06-26T03:03:28;3.93;;;3.33;;
37777;SDS011;23615;51.506;7.678;2023-06-26T03:05:53;3.77;;;3.47;;
37777;SDS011;23615;51.506;7.678;2023-06-26T03:08:18;4.43;;;3.90;;
37777;SDS011;23615;51.506;7.678;2023-06-26T03:10:44;3.93;;;3.63;;
37777;SDS011;23615;51.506;7.678;2023-06-26T03:13:09;3.37;;;3.07;;
37777;SDS011;23615;51.506;7.678;2023-06-26T03:15:35;3.37;;;2.93;;
37777;SDS011;23615;51.506;7.678;2023-06-26T03:18:00;3.73;;;3.00;;
37777;SDS011;23615;51.506;7.678;2023-06-26T03:20:26;3.00;;;2.80;;
37777;SDS011;23615;51.506;7.678;2023-06-26T03:22:51;3.07;;;2.83;;
37777;SDS011;23615;51.506;7.678;2023-06-26T03:25:16;3.47;;;3.00;;
37777;SDS011;23615;51.506;7.678;2023-06-26T03:27:42;3.33;;;2.97;;
37777;SDS011;23615;51.506;7.678;2023-06-26T03:30:07;3.30;;;3.00;;
37777;SDS011;23615;51.506;7.678;2023-06-26T03:32:33;3.60;;;3.30;;
37777;SDS011;23615;51.506;7.678;2023-06-26T03:34:58;3.00;;;2.73;;
37777;SDS011;23615;51.506;7.678;2023-06-26T03:37:23;4.10;;;3.70;;
37777;SDS011;23615;51.506;7.678;2023-06-26T03:39:48;3.93;;;3.47;;
37777;SDS011;23615;51.506;7.678;2023-06-26T03:42:14;4.23;;;3.67;;
37777;SDS011;23615;51.506;7.678;2023-06-26T03:44:39;4.10;;;3.70;;
37777;SDS011;23615;51.506;7.678;2023-06-26T03:47:04;4.83;;;3.97;;
37777;SDS011;23615;51.506;7.678;2023-06-26T03:49:30;3.93;;;3.53;;
37777;SDS011;23615;51.506;7.678;2023-06-26T03:51:55;3.57;;;3.27;;
37777;SDS011;23615;51.506;7.678;2023-06-26T03:54:20;3.57;;;3.27;;
37777;SDS011;23615;51.506;7.678;2023-06-26T03:56:45;3.80;;;3.40;;
37777;SDS011;23615;51.506;7.678;2023-06-26T03:59:11;4.20;;;3.30;;
37777;SDS011;23615;51.506;7.678;2023-06-26T04:01:36;3.72;;;3.28;;
37777;SDS011;23615;51.506;7.678;2023-06-26T04:04:02;4.28;;;3.25;;
37777;SDS011;23615;51.506;7.678;2023-06-26T04:06:28;4.65;;;3.65;;
37777;SDS011;23615;51.506;7.678;2023-06-26T04:08:53;5.03;;;3.83;;
37777;SDS011;23615;51.506;7.678;2023-06-26T04:11:19;3.87;;;3.50;;
37777;SDS011;23615;51.506;7.678;2023-06-26T04:13:44;3.90;;;3.60;;
37777;SDS011;23615;51.506;7.678;2023-06-26T04:16:09;4.65;;;4.03;;
37777;SDS011;23615;51.506;7.678;2023-06-26T04:18:36;4.60;;;2.90;;
37777;SDS011;23615;51.506;7.678;2023-06-26T04:21:08;3.97;;;3.60;;
37777;SDS011;23615;51.506;7.678;2023-06-26T04:23:36;3.67;;;3.38;;
37777;SDS011;23615;51.506;7.678;2023-06-26T04:26:03;3.63;;;3.20;;
37777;SDS011;23615;51.506;7.678;2023-06-26T04:28:30;4.25;;;2.90;;
37777;SDS011;23615;51.506;7.678;2023-06-26T04:30:56;3.55;;;3.25;;
37777;SDS011;23615;51.506;7.678;2023-06-26T04:33:21;4.47;;;4.00;;
37777;SDS011;23615;51.506;7.678;2023-06-26T04:35:47;3.75;;;3.45;;
37777;SDS011;23615;51.506;7.678;2023-06-26T04:38:14;3.43;;;3.13;;
37777;SDS011;23615;51.506;7.678;2023-06-26T04:40:40;4.38;;;3.33;;
37777;SDS011;23615;51.506;7.678;2023-06-26T04:43:05;3.83;;;3.30;;
37777;SDS011;23615;51.506;7.678;2023-06-26T04:45:30;4.30;;;3.63;;
37777;SDS011;23615;51.506;7.678;2023-06-26T04:47:56;4.27;;;3.23;;
37777;SDS011;23615;51.506;7.678;2023-06-26T04:50:22;3.88;;;3.30;;
37777;SDS011;23615;51.506;7.678;2023-06-26T04:52:47;4.05;;;3.55;;
37777;SDS011;23615;51.506;7.678;2023-06-26T04:55:12;5.70;;;3.45;;
37777;SDS011;23615;51.506;7.678;2023-06-26T04:57:38;3.33;;;3.03;;
37777;SDS011;23615;51.506;7.678;2023-06-26T05:00:03;3.87;;;3.53;;
37777;SDS011;23615;51.506;7.678;2023-06-26T05:02:34;3.10;;;2.80;;
37777;SDS011;23615;51.506;7.678;2023-06-26T05:05:00;5.70;;;3.67;;
37777;SDS011;23615;51.506;7.678;2023-06-26T05:07:25;3.77;;;3.23;;
37777;SDS011;23615;51.506;7.678;2023-06-26T05:09:54;3.83;;;3.50;;
37777;SDS011;23615;51.506;7.678;2023-06-26T05:12:19;3.85;;;2.90;;
37777;SDS011;23615;51.506;7.678;2023-06-26T05:14:45;3.80;;;3.40;;
37777;SDS011;23615;51.506;7.678;2023-06-26T05:17:11;4.25;;;3.83;;
37777;SDS011;23615;51.506;7.678;2023-06-26T05:19:38;4.07;;;3.65;;
37777;SDS011;23615;51.506;7.678;2023-06-26T05:22:03;4.17;;;3.53;;
37777;SDS011;23615;51.506;7.678;2023-06-26T05:24:32;5.47;;;3.83;;
37777;SDS011;23615;51.506;7.678;2023-06-26T05:27:00;5.82;;;3.33;;
37777;SDS011;23615;51.506;7.678;2023-06-26T05:29:25;3.43;;;2.97;;
37777;SDS011;23615;51.506;7.678;2023-06-26T05:31:51;4.03;;;3.35;;
37777;SDS011;23615;51.506;7.678;2023-06-26T05:34:19;4.35;;;3.63;;
37777;SDS011;23615;51.506;7.678;2023-06-26T05:36:48;5.13;;;4.18;;
37777;SDS011;23615;51.506;7.678;2023-06-26T05:39:16;5.17;;;3.93;;
37777;SDS011;23615;51.506;7.678;2023-06-26T05:41:48;4.80;;;3.80;;
37777;SDS011;23615;51.506;7.678;2023-06-26T05:44:19;4.63;;;3.53;;
37777;SDS011;23615;51.506;7.678;2023-06-26T05:46:45;4.25;;;3.78;;
37777;SDS011;23615;51.506;7.678;2023-06-26T05:49:11;5.72;;;4.00;;
37777;SDS011;23615;51.506;7.678;2023-06-26T05:51:36;6.43;;;3.70;;
37777;SDS011;23615;51.506;7.678;2023-06-26T05:54:05;3.77;;;3.37;;
37777;SDS011;23615;51.506;7.678;2023-06-26T05:56:34;4.90;;;3.92;;
37777;SDS011;23615;51.506;7.678;2023-06-26T05:59:02;4.90;;;3.83;;
37777;SDS011;23615;51.506;7.678;2023-06-26T06:01:35;6.60;;;4.65;;
37777;SDS011;23615;51.506;7.678;2023-06-26T06:04:07;4.13;;;3.73;;
37777;SDS011;23615;51.506;7.678;2023-06-26T06:06:34;6.72;;;4.45;;
37777;SDS011;23615;51.506;7.678;2023-06-26T06:09:07;5.40;;;3.40;;
37777;SDS011;23615;51.506;7.678;2023-06-26T06:11:33;6.43;;;4.10;;
37777;SDS011;23615;51.506;7.678;2023-06-26T06:14:00;6.10;;;4.33;;
37777;SDS011;23615;51.506;7.678;2023-06-26T06:16:29;4.47;;;4.03;;
37777;SDS011;23615;51.506;7.678;2023-06-26T06:18:54;4.37;;;3.97;;
37777;SDS011;23615;51.506;7.678;2023-06-26T06:21:20;6.20;;;4.37;;
37777;SDS011;23615;51.506;7.678;2023-06-26T06:23:45;7.10;;;4.72;;
37777;SDS011;23615;51.506;7.678;2023-06-26T06:26:11;8.93;;;5.53;;
37777;SDS011;23615;51.506;7.678;2023-06-26T06:28:37;8.23;;;4.43;;
37777;SDS011;23615;51.506;7.678;2023-06-26T06:31:03;6.88;;;5.03;;
37777;SDS011;23615;51.506;7.678;2023-06-26T06:33:28;7.20;;;4.93;;
37777;SDS011;23615;51.506;7.678;2023-06-26T06:35:54;7.10;;;5.22;;
37777;SDS011;23615;51.506;7.678;2023-06-26T06:38:19;7.57;;;5.47;;
37777;SDS011;23615;51.506;7.678;2023-06-26T06:40:44;8.87;;;5.20;;
37777;SDS011;23615;51.506;7.678;2023-06-26T06:43:10;6.70;;;5.27;;
37777;SDS011;23615;51.506;7.678;2023-06-26T06:45:35;7.00;;;5.40;;
37777;SDS011;23615;51.506;7.678;2023-06-26T06:48:06;6.40;;;5.25;;
37777;SDS011;23615;51.506;7.678;2023-06-26T06:50:32;8.32;;;5.30;;
37777;SDS011;23615;51.506;7.678;2023-06-26T06:52:57;8.20;;;5.60;;
37777;SDS011;23615;51.506;7.678;2023-06-26T06:55:23;6.17;;;5.10;;
37777;SDS011;23615;51.506;7.678;2023-06-26T06:57:50;5.47;;;4.68;;
37777;SDS011;23615;51.506;7.678;2023-06-26T07:00:15;6.30;;;4.57;;
37777;SDS011;23615;51.506;7.678;2023-06-26T07:02:42;6.33;;;4.83;;
37777;SDS011;23615;51.506;7.678;2023-06-26T07:05:09;6.78;;;4.90;;
37777;SDS011;23615;51.506;7.678;2023-06-26T07:07:35;8.80;;;4.75;;
37777;SDS011;23615;51.506;7.678;2023-06-26T07:10:03;5.60;;;4.82;;
37777;SDS011;23615;51.506;7.678;2023-06-26T07:12:30;6.22;;;4.38;;
37777;SDS011;23615;51.506;7.678;2023-06-26T07:14:56;7.47;;;4.63;;
37777;SDS011;23615;51.506;7.678;2023-06-26T07:17:22;7.05;;;4.72;;
37777;SDS011;23615;51.506;7.678;2023-06-26T07:19:48;7.43;;;4.77;;
37777;SDS011;23615;51.506;7.678;2023-06-26T07:22:14;5.65;;;4.45;;
37777;SDS011;23615;51.506;7.678;2023-06-26T07:24:39;5.20;;;4.40;;
37777;SDS011;23615;51.506;7.678;2023-06-26T07:27:04;5.97;;;4.43;;
37777;SDS011;23615;51.506;7.678;2023-06-26T07:29:30;7.65;;;4.75;;
37777;SDS011;23615;51.506;7.678;2023-06-26T07:31:55;6.43;;;4.13;;
37777;SDS011;23615;51.506;7.678;2023-06-26T07:34:20;7.65;;;4.25;;
37777;SDS011;23615;51.506;7.678;2023-06-26T07:36:46;4.37;;;3.80;;
37777;SDS011;23615;51.506;7.678;2023-06-26T07:39:11;6.23;;;3.80;;
37777;SDS011;23615;51.506;7.678;2023-06-26T07:41:36;6.47;;;3.97;;
37777;SDS011;23615;51.506;7.678;2023-06-26T07:44:02;6.67;;;4.07;;
37777;SDS011;23615;51.506;7.678;2023-06-26T07:46:27;5.55;;;4.03;;
37777;SDS011;23615;51.506;7.678;2023-06-26T07:48:53;8.10;;;4.35;;
37777;SDS011;23615;51.506;7.678;2023-06-26T07:51:18;7.43;;;3.83;;
37777;SDS011;23615;51.506;7.678;2023-06-26T07:53:46;7.57;;;4.47;;
37777;SDS011;23615;51.506;7.678;2023-06-26T07:56:11;7.15;;;4.45;;
37777;SDS011;23615;51.506;7.678;2023-06-26T07:58:37;8.93;;;4.20;;
37777;SDS011;23615;51.506;7.678;2023-06-26T08:01:02;7.93;;;4.25;;
37777;SDS011;23615;51.506;7.678;2023-06-26T08:03:28;6.40;;;3.93;;
37777;SDS011;23615;51.506;7.678;2023-06-26T08:05:53;6.13;;;4.07;;
37777;SDS011;23615;51.506;7.678;2023-06-26T08:08:18;6.53;;;4.20;;
37777;SDS011;23615;51.506;7.678;2023-06-26T08:10:44;6.10;;;3.83;;
37777;SDS011;23615;51.506;7.678;2023-06-26T08:13:09;7.87;;;4.40;;
37777;SDS011;23615;51.506;7.678;2023-06-26T08:15:34;6.27;;;4.13;;
37777;SDS011;23615;51.506;7.678;2023-06-26T08:18:00;8.43;;;4.40;;
37777;SDS011;23615;51.506;7.678;2023-06-26T08:20:25;8.17;;;4.60;;
37777;SDS011;23615;51.506;7.678;2023-06-26T08:22:50;10.07;;;4.03;;
37777;SDS011;23615;51.506;7.678;2023-06-26T08:25:17;6.85;;;4.40;;
37777;SDS011;23615;51.506;7.678;2023-06-26T08:27:42;8.10;;;4.22;;
37777;SDS011;23615;51.506;7.678;2023-06-26T08:30:08;9.53;;;5.20;;
37777;SDS011;23615;51.506;7.678;2023-06-26T08:32:34;6.20;;;4.20;;
37777;SDS011;23615;51.506;7.678;2023-06-26T08:34:59;11.10;;;5.23;;
37777;SDS011;23615;51.506;7.678;2023-06-26T08:37:24;9.20;;;4.77;;
37777;SDS011;23615;51.506;7.678;2023-06-26T08:39:50;8.60;;;4.90;;
37777;SDS011;23615;51.506;7.678;2023-06-26T08:45:29;7.30;;;5.10;;
37777;SDS011;23615;51.506;7.678;2023-06-26T08:47:54;7.97;;;5.17;;
37777;SDS011;23615;51.506;7.678;2023-06-26T08:50:23;8.60;;;5.60;;
37777;SDS011;23615;51.506;7.678;2023-06-26T08:55:21;6.88;;;5.20;;
37777;SDS011;23615;51.506;7.678;2023-06-26T08:57:50;9.90;;;5.70;;
37777;SDS011;23615;51.506;7.678;2023-06-26T09:00:18;10.10;;;6.20;;
37777;SDS011;23615;51.506;7.678;2023-06-26T09:02:45;5.25;;;4.72;;
37777;SDS011;23615;51.506;7.678;2023-06-26T09:05:10;5.80;;;5.20;;
37777;SDS011;23615;51.506;7.678;2023-06-26T09:07:36;10.57;;;6.73;;
37777;SDS011;23615;51.506;7.678;2023-06-26T09:10:01;8.70;;;6.93;;
37777;SDS011;23615;51.506;7.678;2023-06-26T09:14:56;9.18;;;6.15;;
37777;SDS011;23615;51.506;7.678;2023-06-26T09:17:25;7.77;;;6.20;;
37777;SDS011;23615;51.506;7.678;2023-06-26T09:19:51;11.85;;;8.27;;
37777;SDS011;23615;51.506;7.678;2023-06-26T09:22:23;9.97;;;8.80;;
37777;SDS011;23615;51.506;7.678;2023-06-26T09:24:48;13.10;;;8.43;;
37777;SDS011;23615;51.506;7.678;2023-06-26T09:27:15;13.32;;;10.18;;
37777;SDS011;23615;51.506;7.678;2023-06-26T09:29:41;12.50;;;9.20;;
37777;SDS011;23615;51.506;7.678;2023-06-26T09:32:09;11.60;;;9.50;;
37777;SDS011;23615;51.506;7.678;2023-06-26T09:34:35;12.03;;;9.87;;
37777;SDS011;23615;51.506;7.678;2023-06-26T09:37:00;11.60;;;9.80;;
37777;SDS011;23615;51.506;7.678;2023-06-26T09:39:30;12.50;;;10.53;;
37777;SDS011;23615;51.506;7.678;2023-06-26T09:41:56;14.37;;;12.87;;
37777;SDS011;23615;51.506;7.678;2023-06-26T09:44:22;14.57;;;12.63;;
37777;SDS011;23615;51.506;7.678;2023-06-26T09:46:48;12.82;;;11.50;;
37777;SDS011;23615;51.506;7.678;2023-06-26T09:49:13;12.90;;;11.17;;
37777;SDS011;23615;51.506;7.678;2023-06-26T09:51:40;9.23;;;7.73;;
37777;SDS011;23615;51.506;7.678;2023-06-26T09:54:07;11.07;;;6.03;;
37777;SDS011;23615;51.506;7.678;2023-06-26T09:56:33;10.80;;;6.82;;
37777;SDS011;23615;51.506;7.678;2023-06-26T09:59:00;9.07;;;8.07;;
37777;SDS011;23615;51.506;7.678;2023-06-26T10:03:56;11.13;;;6.25;;
37777;SDS011;23615;51.506;7.678;2023-06-26T10:06:24;8.10;;;5.78;;
37777;SDS011;23615;51.506;7.678;2023-06-26T10:08:58;12.07;;;7.40;;
37777;SDS011;23615;51.506;7.678;2023-06-26T10:11:25;9.23;;;6.50;;
37777;SDS011;23615;51.506;7.678;2023-06-26T10:13:59;9.93;;;5.90;;
37777;SDS011;23615;51.506;7.678;2023-06-26T10:16:28;6.65;;;4.50;;
37777;SDS011;23615;51.506;7.678;2023-06-26T10:18:58;6.35;;;4.07;;
37777;SDS011;23615;51.506;7.678;2023-06-26T10:21:26;6.25;;;4.50;;
37777;SDS011;23615;51.506;7.678;2023-06-26T10:23:54;7.00;;;4.03;;
37777;SDS011;23615;51.506;7.678;2023-06-26T10:26:21;4.80;;;4.00;;
37777;SDS011;23615;51.506;7.678;2023-06-26T10:28:49;8.52;;;4.70;;
37777;SDS011;23615;51.506;7.678;2023-06-26T10:31:18;7.90;;;4.35;;
37777;SDS011;23615;51.506;7.678;2023-06-26T10:33:48;6.57;;;4.43;;
37777;SDS011;23615;51.506;7.678;2023-06-26T10:36:15;9.90;;;4.28;;
37777;SDS011;23615;51.506;7.678;2023-06-26T10:38:48;7.15;;;3.40;;
37777;SDS011;23615;51.506;7.678;2023-06-26T10:41:14;5.85;;;2.88;;
37777;SDS011;23615;51.506;7.678;2023-06-26T10:43:48;7.00;;;3.30;;
37777;SDS011;23615;51.506;7.678;2023-06-26T10:46:14;6.53;;;2.55;;
37777;SDS011;23615;51.506;7.678;2023-06-26T10:48:59;6.72;;;2.17;;
37777;SDS011;23615;51.506;7.678;2023-06-26T10:51:28;4.00;;;2.50;;
37777;SDS011;23615;51.506;7.678;2023-06-26T10:53:55;6.40;;;3.00;;
37777;SDS011;23615;51.506;7.678;2023-06-26T10:56:21;4.85;;;2.80;;
37777;SDS011;23615;51.506;7.678;2023-06-26T10:58:47;5.50;;;2.53;;
37777;SDS011;23615;51.506;7.678;2023-06-26T11:01:20;4.35;;;2.20;;
37777;SDS011;23615;51.506;7.678;2023-06-26T11:04:00;6.23;;;2.77;;
37777;SDS011;23615;51.506;7.678;2023-06-26T11:06:28;3.43;;;2.10;;
37777;SDS011;23615;51.506;7.678;2023-06-26T11:08:59;6.05;;;3.03;;
37777;SDS011;23615;51.506;7.678;2023-06-26T11:14:20;4.20;;;2.27;;
37777;SDS011;23615;51.506;7.678;2023-06-26T11:16:47;5.70;;;2.53;;
37777;SDS011;23615;51.506;7.678;2023-06-26T11:19:14;3.97;;;2.25;;
37777;SDS011;23615;51.506;7.678;2023-06-26T11:21:39;3.97;;;1.95;;
37777;SDS011;23615;51.506;7.678;2023-06-26T11:24:10;7.63;;;2.10;;
37777;SDS011;23615;51.506;7.678;2023-06-26T11:26:37;5.28;;;2.00;;
37777;SDS011;23615;51.506;7.678;2023-06-26T11:29:03;5.03;;;1.77;;
37777;SDS011;23615;51.506;7.678;2023-06-26T11:31:32;3.93;;;1.80;;
37777;SDS011;23615;51.506;7.678;2023-06-26T11:33:59;4.60;;;1.58;;
37777;SDS011;23615;51.506;7.678;2023-06-26T11:36:26;5.57;;;2.10;;
37777;SDS011;23615;51.506;7.678;2023-06-26T11:38:57;4.80;;;1.60;;
37777;SDS011;23615;51.506;7.678;2023-06-26T11:41:29;3.97;;;1.85;;
37777;SDS011;23615;51.506;7.678;2023-06-26T11:43:56;6.07;;;2.08;;
37777;SDS011;23615;51.506;7.678;2023-06-26T11:46:30;4.47;;;1.40;;
37777;SDS011;23615;51.506;7.678;2023-06-26T11:49:06;3.93;;;1.50;;
37777;SDS011;23615;51.506;7.678;2023-06-26T11:51:32;4.20;;;1.77;;
37777;SDS011;23615;51.506;7.678;2023-06-26T11:54:00;3.80;;;1.45;;
37777;SDS011;23615;51.506;7.678;2023-06-26T11:56:28;3.53;;;1.40;;
37777;SDS011;23615;51.506;7.678;2023-06-26T11:59:00;4.00;;;1.30;;
37777;SDS011;23615;51.506;7.678;2023-06-26T12:01:38;6.03;;;2.05;;
37777;SDS011;23615;51.506;7.678;2023-06-26T12:04:06;6.13;;;1.67;;
37777;SDS011;23615;51.506;7.678;2023-06-26T12:06:34;4.18;;;1.65;;
37777;SDS011;23615;51.506;7.678;2023-06-26T12:09:02;4.97;;;1.88;;
37777;SDS011;23615;51.506;7.678;2023-06-26T12:11:31;3.60;;;1.83;;
37777;SDS011;23615;51.506;7.678;2023-06-26T12:13:59;4.30;;;1.98;;
37777;SDS011;23615;51.506;7.678;2023-06-26T12:16:25;3.83;;;2.00;;
37777;SDS011;23615;51.506;7.678;2023-06-26T12:18:51;3.60;;;2.20;;
37777;SDS011;23615;51.506;7.678;2023-06-26T12:24:09;4.35;;;2.00;;
37777;SDS011;23615;51.506;7.678;2023-06-26T12:26:38;4.10;;;1.47;;
37777;SDS011;23615;51.506;7.678;2023-06-26T12:29:07;3.93;;;1.63;;
37777;SDS011;23615;51.506;7.678;2023-06-26T12:31:34;3.65;;;1.65;;
37777;SDS011;23615;51.506;7.678;2023-06-26T12:34:01;2.83;;;1.35;;
37777;SDS011;23615;51.506;7.678;2023-06-26T12:36:26;3.50;;;1.20;;
37777;SDS011;23615;51.506;7.678;2023-06-26T12:38:52;5.13;;;1.20;;
37777;SDS011;23615;51.506;7.678;2023-06-26T12:41:18;3.50;;;0.90;;
37777;SDS011;23615;51.506;7.678;2023-06-26T12:43:45;2.38;;;0.70;;
37777;SDS011;23615;51.506;7.678;2023-06-26T12:46:11;3.00;;;0.90;;
37777;SDS011;23615;51.506;7.678;2023-06-26T12:48:39;2.40;;;0.83;;
37777;SDS011;23615;51.506;7.678;2023-06-26T12:51:12;3.35;;;1.00;;
37777;SDS011;23615;51.506;7.678;2023-06-26T12:53:39;3.95;;;0.95;;
37777;SDS011;23615;51.506;7.678;2023-06-26T12:56:05;3.40;;;0.90;;
37777;SDS011;23615;51.506;7.678;2023-06-26T12:58:31;2.53;;;0.93;;
37777;SDS011;23615;51.506;7.678;2023-06-26T13:00:57;1.77;;;0.57;;
37777;SDS011;23615;51.506;7.678;2023-06-26T13:03:22;1.03;;;0.47;;
37777;SDS011;23615;51.506;7.678;2023-06-26T13:05:48;3.17;;;0.57;;
37777;SDS011;23615;51.506;7.678;2023-06-26T13:08:13;2.53;;;0.50;;
37777;SDS011;23615;51.506;7.678;2023-06-26T13:10:42;3.17;;;0.60;;
37777;SDS011;23615;51.506;7.678;2023-06-26T13:13:07;1.80;;;0.53;;
37777;SDS011;23615;51.506;7.678;2023-06-26T13:15:33;3.37;;;0.43;;
37777;SDS011;23615;51.506;7.678;2023-06-26T13:17:58;5.53;;;0.70;;
37777;SDS011;23615;51.506;7.678;2023-06-26T13:20:24;0.93;;;0.30;;
37777;SDS011;23615;51.506;7.678;2023-06-26T13:22:49;2.23;;;0.70;;
37777;SDS011;23615;51.506;7.678;2023-06-26T13:25:15;3.47;;;0.50;;
37777;SDS011;23615;51.506;7.678;2023-06-26T13:27:42;3.42;;;0.40;;
37777;SDS011;23615;51.506;7.678;2023-06-26T13:30:08;1.43;;;0.50;;
37777;SDS011;23615;51.506;7.678;2023-06-26T13:32:33;2.90;;;0.30;;
37777;SDS011;23615;51.506;7.678;2023-06-26T13:34:59;2.50;;;0.53;;
37777;SDS011;23615;51.506;7.678;2023-06-26T13:37:24;3.05;;;0.40;;
37777;SDS011;23615;51.506;7.678;2023-06-26T13:39:49;3.30;;;0.50;;
37777;SDS011;23615;51.506;7.678;2023-06-26T13:42:17;2.33;;;0.32;;
37777;SDS011;23615;51.506;7.678;2023-06-26T13:44:42;4.20;;;0.45;;
37777;SDS011;23615;51.506;7.678;2023-06-26T13:47:08;3.20;;;0.40;;
37777;SDS011;23615;51.506;7.678;2023-06-26T13:49:35;1.25;;;0.30;;
37777;SDS011;23615;51.506;7.678;2023-06-26T13:52:00;3.40;;;0.40;;
37777;SDS011;23615;51.506;7.678;2023-06-26T13:54:26;1.40;;;0.30;;
37777;SDS011;23615;51.506;7.678;2023-06-26T13:56:51;1.37;;;0.40;;
37777;SDS011;23615;51.506;7.678;2023-06-26T13:59:17;1.30;;;0.40;;
37777;SDS011;23615;51.506;7.678;2023-06-26T14:01:43;1.50;;;0.30;;
37777;SDS011;23615;51.506;7.678;2023-06-26T14:04:08;2.72;;;0.40;;
37777;SDS011;23615;51.506;7.678;2023-06-26T14:06:34;2.33;;;0.40;;
37777;SDS011;23615;51.506;7.678;2023-06-26T14:08:59;1.07;;;0.30;;
37777;SDS011;23615;51.506;7.678;2023-06-26T14:11:25;3.10;;;0.40;;
37777;SDS011;23615;51.506;7.678;2023-06-26T14:13:51;1.45;;;0.40;;
37777;SDS011;23615;51.506;7.678;2023-06-26T14:16:16;1.13;;;0.30;;
37777;SDS011;23615;51.506;7.678;2023-06-26T14:18:43;1.45;;;0.40;;
37777;SDS011;23615;51.506;7.678;2023-06-26T14:21:08;1.20;;;0.30;;
37777;SDS011;23615;51.506;7.678;2023-06-26T14:23:34;3.03;;;0.32;;
37777;SDS011;23615;51.506;7.678;2023-06-26T14:25:59;2.00;;;0.30;;
37777;SDS011;23615;51.506;7.678;2023-06-26T14:28:25;1.87;;;0.40;;
37777;SDS011;23615;51.506;7.678;2023-06-26T14:30:50;3.37;;;0.40;;
37777;SDS011;23615;51.506;7.678;2023-06-26T14:33:15;2.73;;;0.20;;
37777;SDS011;23615;51.506;7.678;2023-06-26T14:35:41;3.37;;;0.30;;
37777;SDS011;23615;51.506;7.678;2023-06-26T14:38:21;0.70;;;0.30;;
37777;SDS011;23615;51.506;7.678;2023-06-26T14:40:47;1.52;;;0.40;;
37777;SDS011;23615;51.506;7.678;2023-06-26T14:43:12;4.93;;;0.50;;
37777;SDS011;23615;51.506;7.678;2023-06-26T14:45:37;0.97;;;0.20;;
37777;SDS011;23615;51.506;7.678;2023-06-26T14:48:03;3.15;;;0.40;;
37777;SDS011;23615;51.506;7.678;2023-06-26T14:50:28;2.30;;;0.40;;
37777;SDS011;23615;51.506;7.678;2023-06-26T14:52:53;2.63;;;0.40;;
37777;SDS011;23615;51.506;7.678;2023-06-26T14:55:19;2.80;;;0.40;;
37777;SDS011;23615;51.506;7.678;2023-06-26T14:57:44;3.90;;;0.43;;
37777;SDS011;23615;51.506;7.678;2023-06-26T15:00:10;2.40;;;0.38;;
37777;SDS011;23615;51.506;7.678;2023-06-26T15:02:35;1.48;;;0.20;;
37777;SDS011;23615;51.506;7.678;2023-06-26T15:05:01;1.95;;;0.35;;
37777;SDS011;23615;51.506;7.678;2023-06-26T15:07:26;2.70;;;0.40;;